Time;durP1;ratioP1;P1;durP2;ratioP2;P2;SDS_P1;SDS_P2;PMS_P1;PMS_P2;Temp;Humidity;BMP_temperature;BMP_pressure;BME280_temperature;BME280_humidity;BME280_pressure;Samples;Min_cycle;Max_cycle;Signal;HPM_P1;HPM_P2
2023/02/05 00:00:02;;;;;;;3.22;1.83;;;;;;;-4.91;84.08;93948.41;5105246;28;20016;-79
2023/02/05 00:02:28;;;;;;;2.97;1.58;;;;;;;-4.95;84.43;93961.03;5105276;28;20023;-79
2023/02/05 00:04:53;;;;;;;2.88;1.50;;;;;;;-4.96;84.31;93961.28;5104008;28;20023;-79
2023/02/05 00:07:19;;;;;;;3.95;2.03;;;;;;;-5.00;84.59;93966.09;5105172;28;20298;-79
2023/02/05 00:09:44;;;;;;;4.85;2.08;;;;;;;-5.10;84.35;93956.19;5105122;28;20020;-79
2023/02/05 00:12:09;;;;;;;3.80;2.10;;;;;;;-5.08;84.62;93971.56;5105024;28;20033;-79
2023/02/05 00:14:35;;;;;;;5.55;1.88;;;;;;;-5.13;84.55;93961.81;5105153;28;20069;-79
2023/02/05 00:17:00;;;;;;;4.38;2.35;;;;;;;-5.18;84.41;93961.66;5105028;28;20329;-79
2023/02/05 00:19:26;;;;;;;4.22;2.08;;;;;;;-5.18;83.72;93964.25;5104973;28;20314;-79
2023/02/05 00:21:51;;;;;;;3.65;1.80;;;;;;;-5.13;83.96;93972.22;5103630;28;20047;-79
2023/02/05 00:24:17;;;;;;;3.17;1.75;;;;;;;-5.11;83.50;93965.00;5104803;28;20209;-79
2023/02/05 00:26:42;;;;;;;3.55;1.75;;;;;;;-5.10;81.58;93961.38;5104814;28;20341;-79
2023/02/05 00:29:08;;;;;;;3.47;1.60;;;;;;;-5.09;81.37;93956.97;5104701;28;20027;-79
2023/02/05 00:31:33;;;;;;;4.50;2.03;;;;;;;-5.14;80.57;93957.63;5104722;28;20026;-79
2023/02/05 00:33:59;;;;;;;2.97;1.70;;;;;;;-5.06;79.76;93957.34;5104491;28;20026;-79
2023/02/05 00:36:25;;;;;;;6.30;1.73;;;;;;;-5.05;78.82;93969.34;5104701;28;20229;-78
2023/02/05 00:38:50;;;;;;;3.58;1.77;;;;;;;-5.04;79.52;93959.72;5104509;28;20425;-79
2023/02/05 00:41:17;;;;;;;3.63;1.17;;;;;;;-5.10;78.33;93987.38;5103361;28;20058;-79
2023/02/05 00:43:42;;;;;;;4.25;1.60;;;;;;;-5.08;78.56;93969.75;5104427;28;20069;-79
2023/02/05 00:46:09;;;;;;;4.35;1.98;;;;;;;-5.05;78.20;93964.16;5104156;28;20035;-78
2023/02/05 00:48:35;;;;;;;3.33;1.55;;;;;;;-5.04;77.35;93970.13;5104424;28;20214;-79
2023/02/05 00:51:01;;;;;;;4.13;1.50;;;;;;;-5.02;76.54;93993.31;5103345;28;20043;-79
2023/02/05 00:53:27;;;;;;;3.83;1.70;;;;;;;-5.08;76.31;93974.94;5104421;28;20069;-79
2023/02/05 00:55:52;;;;;;;3.00;1.75;;;;;;;-5.03;76.78;94002.91;5104293;28;20028;-79
2023/02/05 00:58:18;;;;;;;3.47;1.30;;;;;;;-5.09;77.56;93983.78;5104007;28;20020;-78
2023/02/05 01:00:44;;;;;;;4.13;1.80;;;;;;;-5.10;77.81;93987.38;5104060;28;20031;-79
2023/02/05 01:03:10;;;;;;;5.45;1.75;;;;;;;-5.16;78.73;93984.81;5102921;28;20027;-79
2023/02/05 01:05:37;;;;;;;2.63;1.45;;;;;;;-5.17;79.36;93984.03;5104167;28;20028;-79
2023/02/05 01:08:04;;;;;;;3.58;1.60;;;;;;;-5.23;79.31;94005.69;5103649;28;20039;-79
2023/02/05 01:10:30;;;;;;;3.33;2.10;;;;;;;-5.28;80.37;93987.31;5103798;28;20051;-79
2023/02/05 01:12:56;;;;;;;2.97;1.65;;;;;;;-5.30;80.92;93987.50;5102598;28;20028;-79
2023/02/05 01:15:21;;;;;;;3.72;1.80;;;;;;;-5.32;80.86;93993.94;5103847;28;20043;-79
2023/02/05 01:17:47;;;;;;;4.63;2.00;;;;;;;-5.32;81.13;93978.34;5103975;28;20042;-79
2023/02/05 01:20:14;;;;;;;4.57;2.42;;;;;;;-5.33;81.06;93987.13;5103659;28;20314;-79
2023/02/05 01:22:39;;;;;;;3.92;1.92;;;;;;;-5.37;81.18;93985.97;5103689;28;20020;-78
2023/02/05 01:25:06;;;;;;;5.57;2.60;;;;;;;-5.39;81.54;93978.41;5103825;28;20096;-79
2023/02/05 01:27:33;;;;;;;4.05;1.98;;;;;;;-5.45;81.00;93995.63;5103680;28;20024;-78
2023/02/05 01:29:58;;;;;;;2.00;1.40;;;;;;;-5.46;81.45;93996.63;5102435;28;20027;-79
2023/02/05 01:32:24;;;;;;;9.15;2.95;;;;;;;-5.47;81.63;93987.25;5102284;28;20024;-78
2023/02/05 01:34:49;;;;;;;3.90;2.00;;;;;;;-5.46;81.76;93996.63;5103647;28;20028;-78
2023/02/05 01:37:15;;;;;;;6.95;2.28;;;;;;;-5.48;81.03;93998.63;5103588;28;20031;-79
2023/02/05 01:39:40;;;;;;;4.70;2.08;;;;;;;-5.47;80.86;93997.63;5103437;28;20047;-79
2023/02/05 01:42:20;;;;;;;4.15;2.25;;;;;;;-5.44;80.44;93989.41;5103612;28;20035;-79
2023/02/05 01:45:20;;;;;;;5.03;2.25;;;;;;;-5.41;80.60;94009.00;5103357;28;20058;-79
2023/02/05 01:47:59;;;;;;;2.95;1.60;;;;;;;-5.37;80.12;94010.16;5102969;28;20035;-78
2023/02/05 01:50:37;;;;;;;3.88;2.20;;;;;;;-5.38;80.10;94002.56;5103482;28;20268;-79
2023/02/05 01:53:07;;;;;;;5.70;2.53;;;;;;;-5.44;80.15;93994.59;5103574;28;20051;-79
2023/02/05 01:55:36;;;;;;;2.80;1.60;;;;;;;-5.49;80.13;94004.84;5103380;28;20035;-78
2023/02/05 01:58:02;;;;;;;4.82;2.55;;;;;;;-5.53;80.50;94006.28;5103443;28;20313;-79
2023/02/05 02:00:27;;;;;;;5.97;2.33;;;;;;;-5.50;81.24;94013.63;5103135;28;20032;-79
2023/02/05 02:02:53;;;;;;;4.65;2.45;;;;;;;-5.45;80.80;94016.41;5103191;28;20047;-79
2023/02/05 02:05:18;;;;;;;3.88;2.08;;;;;;;-5.47;79.97;94018.41;5103136;28;20024;-79
2023/02/05 02:07:44;;;;;;;3.78;2.25;;;;;;;-5.48;80.36;94011.63;5103133;28;20069;-79
2023/02/05 02:10:12;;;;;;;4.93;2.25;;;;;;;-5.50;79.75;94008.44;5103181;28;20104;-79
2023/02/05 02:12:41;;;;;;;8.88;1.90;;;;;;;-5.52;79.55;94015.63;5103241;28;20091;-79
2023/02/05 02:15:14;;;;;;;4.18;1.85;;;;;;;-5.52;79.64;94015.63;5103061;28;20024;-79
2023/02/05 02:17:44;;;;;;;4.13;1.95;;;;;;;-5.45;80.15;94026.00;5102899;28;20043;-79
2023/02/05 02:20:24;;;;;;;4.80;2.15;;;;;;;-5.46;80.17;94009.59;5104368;28;20026;-79
2023/02/05 02:22:53;;;;;;;3.42;2.08;;;;;;;-5.39;78.97;94021.75;5107003;28;20027;-79
2023/02/05 02:25:37;;;;;;;4.13;2.15;;;;;;;-5.53;79.05;94024.44;5106994;28;20087;-79
2023/02/05 02:28:32;;;;;;;4.68;2.05;;;;;;;-5.56;79.07;94026.66;5107247;28;20260;-79
2023/02/05 02:31:10;;;;;;;6.53;2.47;;;;;;;-5.58;78.17;94054.66;5105904;28;20023;-79
2023/02/05 02:33:45;;;;;;;8.07;1.90;;;;;;;-5.61;78.05;94040.28;5106859;28;20026;-79
2023/02/05 02:36:31;;;;;;;6.40;2.47;;;;;;;-5.57;78.73;94022.50;5106859;28;20234;-79
2023/02/05 02:39:14;;;;;;;3.40;1.85;;;;;;;-5.54;78.13;94027.25;5106824;28;20077;-79
2023/02/05 02:41:45;;;;;;;4.97;2.05;;;;;;;-5.61;77.94;94016.13;5106953;28;20074;-79
2023/02/05 02:44:17;;;;;;;2.90;1.75;;;;;;;-5.68;77.97;94042.09;5106840;28;20030;-78
2023/02/05 02:46:48;;;;;;;7.28;2.28;;;;;;;-5.73;78.19;94040.13;5106577;28;20074;-79
2023/02/05 02:49:22;;;;;;;5.95;2.40;;;;;;;-5.78;78.90;94041.75;5106661;28;20263;-79
2023/02/05 02:51:49;;;;;;;4.22;2.10;;;;;;;-5.77;78.68;94056.34;5106680;28;20062;-79
2023/02/05 02:54:19;;;;;;;5.18;1.85;;;;;;;-5.79;79.22;94053.94;5106478;28;20321;-79
2023/02/05 02:56:47;;;;;;;3.42;1.88;;;;;;;-5.82;79.63;94043.19;5106569;28;20318;-79
2023/02/05 02:59:17;;;;;;;5.63;2.28;;;;;;;-5.83;79.73;94039.00;5106492;28;20024;-79
2023/02/05 03:01:45;;;;;;;6.22;2.15;;;;;;;-5.94;80.54;94046.44;5105231;28;20020;-78
2023/02/05 03:04:21;;;;;;;3.15;1.42;;;;;;;-5.98;80.37;94057.44;5106642;28;20257;-79
2023/02/05 03:06:49;;;;;;;3.97;1.92;;;;;;;-6.08;80.60;94057.91;5106224;28;20281;-79
2023/02/05 03:09:21;;;;;;;3.75;1.90;;;;;;;-6.10;80.68;94050.31;5106237;28;20032;-78
2023/02/05 03:11:46;;;;;;;5.13;2.40;;;;;;;-6.13;80.67;94050.72;5105153;28;20044;-79
2023/02/05 03:14:12;;;;;;;8.38;2.60;;;;;;;-6.16;80.48;94061.50;5106212;28;20318;-79
2023/02/05 03:16:37;;;;;;;7.57;2.35;;;;;;;-6.14;80.08;94066.50;5106125;28;20218;-79
2023/02/05 03:19:05;;;;;;;2.70;1.67;;;;;;;-6.18;79.61;94062.72;5106211;28;20091;-79
2023/02/05 03:21:42;;;;;;;4.93;2.25;;;;;;;-6.14;80.16;94079.47;5106037;28;20020;-79
2023/02/05 03:24:08;;;;;;;4.10;1.88;;;;;;;-6.12;79.67;94061.91;5104826;28;20024;-79
2023/02/05 03:26:35;;;;;;;4.38;1.90;;;;;;;-6.07;79.94;94062.88;5105952;28;20023;-79
2023/02/05 03:29:07;;;;;;;9.27;2.38;;;;;;;-6.05;79.91;94065.25;5106032;28;20214;-79
2023/02/05 03:31:48;;;;;;;5.38;1.90;;;;;;;-6.07;79.58;94070.66;5105115;28;20031;-79
2023/02/05 03:34:23;;;;;;;5.22;2.60;;;;;;;-6.16;79.30;94052.94;5105725;28;20038;-79
2023/02/05 03:37:19;;;;;;;6.35;1.95;;;;;;;-6.17;79.83;94059.13;5105755;28;20034;-79
2023/02/05 03:40:05;;;;;;;4.10;2.03;;;;;;;-6.15;79.76;94062.31;5105699;28;20222;-79
2023/02/05 03:42:55;;;;;;;3.55;2.13;;;;;;;-6.16;80.10;94068.50;5105705;28;20024;-78
2023/02/05 03:45:59;;;;;;;4.70;1.75;;;;;;;-6.22;79.61;94062.34;5105576;28;20034;-79
2023/02/05 03:48:42;;;;;;;4.97;1.73;;;;;;;-6.23;79.89;94062.53;5103349;28;20107;-79
2023/02/05 03:51:16;;;;;;;6.75;2.22;;;;;;;-6.22;80.41;94069.31;5105309;28;20020;-78
2023/02/05 03:53:50;;;;;;;5.65;2.40;;;;;;;-6.26;80.72;94066.34;5105351;28;20066;-79
2023/02/05 03:56:22;;;;;;;4.95;1.90;;;;;;;-6.21;81.00;94074.28;5104251;28;20198;-79
2023/02/05 03:58:52;;;;;;;4.45;2.45;;;;;;;-6.16;81.50;94078.88;5105333;28;20062;-79
2023/02/05 04:01:19;;;;;;;4.38;2.72;;;;;;;-6.21;80.39;94052.75;5103907;28;20028;-79
2023/02/05 04:03:45;;;;;;;3.53;1.85;;;;;;;-6.21;80.26;94068.31;5105231;28;20103;-79
2023/02/05 04:06:11;;;;;;;3.80;2.05;;;;;;;-6.15;80.39;94088.25;5103974;28;20020;-79
2023/02/05 04:08:37;;;;;;;4.68;1.73;;;;;;;-6.22;80.47;94092.69;5105082;28;20320;-79
2023/02/05 04:11:02;;;;;;;8.77;2.25;;;;;;;-6.28;80.21;94087.28;5105303;28;20051;-79
2023/02/05 04:13:28;;;;;;;5.63;2.15;;;;;;;-6.33;80.76;94092.31;5104902;28;20032;-79
2023/02/05 04:15:53;;;;;;;6.68;2.25;;;;;;;-6.28;81.19;94099.47;5105063;28;20020;-79
2023/02/05 04:18:19;;;;;;;5.50;2.42;;;;;;;-6.23;80.95;94096.25;5105008;28;20221;-79
2023/02/05 04:20:44;;;;;;;3.05;1.48;;;;;;;-6.27;80.97;94114.84;5104860;28;20068;-79
2023/02/05 04:23:10;;;;;;;2.00;1.13;;;;;;;-6.32;81.63;94101.66;5104905;28;20016;-79
2023/02/05 04:25:37;;;;;;;3.70;1.70;;;;;;;-6.32;82.07;94093.88;5104688;28;20024;-79
2023/02/05 04:28:04;;;;;;;3.13;1.63;;;;;;;-6.32;81.99;94103.47;5103669;28;20036;-79
2023/02/05 04:30:30;;;;;;;6.10;2.25;;;;;;;-6.33;82.22;94097.50;5104775;28;20028;-79
2023/02/05 04:32:55;;;;;;;6.10;2.45;;;;;;;-6.33;82.45;94105.28;5104662;28;20028;-79
2023/02/05 04:35:21;;;;;;;4.53;2.10;;;;;;;-6.33;82.06;94100.09;5104533;28;20027;-79
2023/02/05 04:37:46;;;;;;;4.07;2.35;;;;;;;-6.30;81.88;94106.66;5104733;28;20061;-79
2023/02/05 04:40:11;;;;;;;6.95;2.63;;;;;;;-6.32;82.14;94109.44;5104582;28;20020;-79
2023/02/05 04:42:37;;;;;;;3.80;1.70;;;;;;;-6.37;81.86;94111.03;5104432;28;20097;-79
2023/02/05 04:45:04;;;;;;;3.90;2.20;;;;;;;-6.37;81.51;94111.88;5104628;28;20210;-79
2023/02/05 04:47:30;;;;;;;6.57;2.00;;;;;;;-6.37;82.21;94116.22;5104157;28;20063;-79
2023/02/05 04:49:56;;;;;;;5.45;2.38;;;;;;;-6.38;82.38;94105.06;5104231;28;20035;-79
2023/02/05 04:52:21;;;;;;;5.53;2.05;;;;;;;-6.40;81.90;94111.47;5104203;28;20035;-79
2023/02/05 04:54:46;;;;;;;4.63;2.17;;;;;;;-6.37;82.15;94114.47;5104251;28;20024;-79
2023/02/05 04:57:12;;;;;;;4.22;1.88;;;;;;;-6.45;81.79;94109.47;5104270;28;20016;-79
2023/02/05 04:59:38;;;;;;;2.97;1.77;;;;;;;-6.45;82.25;94119.84;5104224;28;20047;-78
2023/02/05 05:02:03;;;;;;;4.03;2.35;;;;;;;-6.42;82.41;94124.63;5104166;28;20028;-79
2023/02/05 05:04:28;;;;;;;3.40;2.20;;;;;;;-6.41;82.75;94120.22;5104027;28;20042;-79
2023/02/05 05:06:54;;;;;;;3.45;1.83;;;;;;;-6.43;82.08;94128.22;5103976;28;20051;-79
2023/02/05 05:09:22;;;;;;;4.57;2.00;;;;;;;-6.51;81.55;94131.03;5103887;28;20020;-79
2023/02/05 05:11:51;;;;;;;4.28;2.47;;;;;;;-6.47;82.14;94121.84;5103801;28;20376;-78
2023/02/05 05:14:17;;;;;;;3.53;1.67;;;;;;;-6.51;82.12;94131.03;5103924;28;20012;-79
2023/02/05 05:16:42;;;;;;;3.53;1.38;;;;;;;-6.51;82.23;94134.41;5103903;28;20023;-79
2023/02/05 05:19:08;;;;;;;6.25;1.70;;;;;;;-6.52;82.69;94135.41;5103778;28;20187;-79
2023/02/05 05:21:33;;;;;;;5.55;2.13;;;;;;;-6.52;82.96;94143.19;5103859;28;20043;-79
2023/02/05 05:23:59;;;;;;;5.90;2.33;;;;;;;-6.52;82.71;94139.81;5103659;28;20023;-79
2023/02/05 05:26:24;;;;;;;5.40;2.15;;;;;;;-6.48;83.05;94146.97;5103860;28;20028;-79
2023/02/05 05:28:54;;;;;;;5.13;1.98;;;;;;;-6.46;82.54;94149.38;5103628;28;20016;-79
2023/02/05 05:31:19;;;;;;;5.45;2.25;;;;;;;-6.49;82.04;94155.75;5103564;28;20016;-79
2023/02/05 05:33:45;;;;;;;3.20;1.83;;;;;;;-6.54;82.09;94159.94;5103162;28;20012;-78
2023/02/05 05:36:11;;;;;;;5.13;1.98;;;;;;;-6.62;82.64;94153.16;5103482;28;20015;-78
2023/02/05 05:38:37;;;;;;;5.78;2.25;;;;;;;-6.60;82.95;94152.97;5103402;28;20078;-79
2023/02/05 05:43:48;;;;;;;7.10;2.30;;;;;;;-6.61;83.39;94148.75;5103329;28;20089;-78
2023/02/05 05:46:22;;;;;;;6.97;2.38;;;;;;;-6.58;83.44;94161.34;5103098;28;20036;-79
2023/02/05 05:49:00;;;;;;;4.10;2.13;;;;;;;-6.61;83.74;94167.72;5103308;28;20204;-79
2023/02/05 05:51:27;;;;;;;4.68;2.13;;;;;;;-6.61;83.61;94175.50;5101991;28;20080;-78
2023/02/05 05:53:53;;;;;;;4.88;2.22;;;;;;;-6.59;83.14;94172.69;5103093;28;20031;-78
2023/02/05 05:56:19;;;;;;;8.00;2.15;;;;;;;-6.62;83.46;94183.47;5102736;28;20061;-78
2023/02/05 05:58:45;;;;;;;5.78;2.40;;;;;;;-6.62;83.35;94178.28;5103106;28;20013;-79
2023/02/05 06:01:13;;;;;;;5.57;2.45;;;;;;;-6.60;83.44;94184.09;5103282;28;20020;-79
2023/02/05 06:03:39;;;;;;;5.43;1.73;;;;;;;-6.59;83.26;94186.47;5102772;28;20057;-78
2023/02/05 06:06:06;;;;;;;4.57;2.22;;;;;;;-6.58;83.19;94189.88;5103276;28;20043;-78
2023/02/05 06:08:32;;;;;;;5.78;2.35;;;;;;;-6.55;83.43;94195.47;5103102;28;20069;-79
2023/02/05 06:10:58;;;;;;;5.68;2.15;;;;;;;-6.49;83.18;94188.69;5103003;28;20023;-79
2023/02/05 06:13:24;;;;;;;3.78;1.85;;;;;;;-6.46;82.95;94196.84;5102929;28;20020;-79
2023/02/05 06:15:49;;;;;;;5.10;2.70;;;;;;;-6.48;82.11;94200.63;5103057;28;20082;-78
2023/02/05 06:18:16;;;;;;;7.47;2.45;;;;;;;-6.41;82.15;94209.25;5103014;28;20027;-78
2023/02/05 06:20:41;;;;;;;5.03;2.08;;;;;;;-6.47;82.38;94210.03;5102940;28;20024;-79
2023/02/05 06:23:07;;;;;;;4.70;2.38;;;;;;;-6.52;82.42;94207.22;5102929;28;20092;-79
2023/02/05 06:25:32;;;;;;;4.13;2.22;;;;;;;-6.47;82.94;94217.81;5102951;28;20024;-79
2023/02/05 06:27:57;;;;;;;6.78;2.72;;;;;;;-6.49;82.49;94215.41;5102679;28;20020;-79
2023/02/05 06:30:23;;;;;;;7.03;2.25;;;;;;;-6.48;82.31;94219.59;5102784;28;20042;-80
2023/02/05 06:32:48;;;;;;;5.70;2.33;;;;;;;-6.49;82.64;94225.00;5102733;28;20042;-79
2023/02/05 06:35:14;;;;;;;3.75;1.67;;;;;;;-6.42;82.44;94233.56;5102861;28;20348;-79
2023/02/05 06:37:39;;;;;;;4.18;2.45;;;;;;;-6.48;82.24;94245.53;5101450;28;20020;-79
2023/02/05 06:40:05;;;;;;;5.40;1.88;;;;;;;-6.48;82.82;94242.94;5102945;28;20061;-79
2023/02/05 06:42:31;;;;;;;6.70;2.30;;;;;;;-6.41;82.79;94235.19;5101643;28;20361;-79
2023/02/05 06:44:56;;;;;;;3.58;1.92;;;;;;;-6.35;82.80;94236.97;5102613;28;20088;-79
2023/02/05 06:47:22;;;;;;;6.00;2.75;;;;;;;-6.43;81.92;94242.34;5102428;28;20043;-79
2023/02/05 06:49:47;;;;;;;6.10;2.28;;;;;;;-6.47;81.66;94252.31;5102577;28;20244;-79
2023/02/05 06:52:13;;;;;;;3.08;1.92;;;;;;;-6.50;81.52;94264.88;5102780;28;20023;-79
2023/02/05 06:54:38;;;;;;;4.22;2.03;;;;;;;-6.47;81.61;94267.09;5102688;28;20315;-79
2023/02/05 06:57:04;;;;;;;5.82;2.50;;;;;;;-6.41;81.69;94273.25;5102751;28;20016;-79
2023/02/05 06:59:29;;;;;;;6.35;3.22;;;;;;;-6.43;81.79;94278.66;5102648;28;20020;-80
2023/02/05 07:01:54;;;;;;;7.68;2.90;;;;;;;-6.46;81.71;94268.69;5102627;28;20419;-79
2023/02/05 07:04:20;;;;;;;5.97;2.58;;;;;;;-6.49;81.68;94271.69;5102609;28;20091;-80
2023/02/05 07:06:45;;;;;;;8.05;2.78;;;;;;;-6.47;81.81;94267.88;5103057;28;20023;-79
2023/02/05 07:09:11;;;;;;;6.28;3.30;;;;;;;-6.36;82.17;94281.25;5106084;28;20086;-79
2023/02/05 07:11:36;;;;;;;4.32;2.20;;;;;;;-6.31;81.43;94273.66;5106055;28;20016;-79
2023/02/05 07:14:02;;;;;;;10.48;3.47;;;;;;;-6.29;81.82;94275.09;5106268;28;20310;-79
2023/02/05 07:16:31;;;;;;;6.72;3.13;;;;;;;-6.28;81.56;94281.06;5106163;28;20032;-79
2023/02/05 07:18:57;;;;;;;4.90;2.55;;;;;;;-6.18;81.52;94285.88;5106179;28;20069;-79
2023/02/05 07:21:22;;;;;;;9.15;3.55;;;;;;;-6.13;81.41;94289.44;5105934;28;20081;-79
2023/02/05 07:23:48;;;;;;;6.47;2.20;;;;;;;-6.13;81.23;94296.44;5105894;28;20028;-79
2023/02/05 07:26:15;;;;;;;7.45;2.78;;;;;;;-6.06;81.10;94299.84;5105790;28;20161;-79
2023/02/05 07:28:42;;;;;;;5.95;2.60;;;;;;;-6.14;80.74;94287.88;5104689;28;20376;-79
2023/02/05 07:31:10;;;;;;;7.30;2.92;;;;;;;-6.12;80.82;94292.84;5105907;28;20091;-79
2023/02/05 07:33:36;;;;;;;7.65;3.10;;;;;;;-6.13;81.39;94299.03;5105713;28;20028;-79
2023/02/05 07:36:03;;;;;;;6.07;2.70;;;;;;;-6.08;81.21;94305.22;5105888;28;20023;-80
2023/02/05 07:38:29;;;;;;;5.75;2.78;;;;;;;-6.07;81.09;94303.44;5105601;28;20091;-80
2023/02/05 07:40:54;;;;;;;6.95;3.10;;;;;;;-6.03;81.56;94294.25;5105635;28;20020;-79
2023/02/05 07:43:20;;;;;;;6.45;2.58;;;;;;;-5.93;82.02;94289.41;5105576;28;20023;-79
2023/02/05 07:45:45;;;;;;;4.70;2.90;;;;;;;-5.88;81.70;94297.41;5105488;28;20051;-79
2023/02/05 07:48:11;;;;;;;5.30;2.65;;;;;;;-5.80;81.72;94300.81;5105411;28;20073;-79
2023/02/05 07:50:36;;;;;;;6.07;3.03;;;;;;;-5.81;81.35;94297.41;5105556;28;20020;-79
2023/02/05 07:53:02;;;;;;;6.20;2.88;;;;;;;-5.73;81.00;94319.78;5105481;28;20024;-80
2023/02/05 07:55:27;;;;;;;7.88;3.50;;;;;;;-5.61;80.89;94322.56;5104124;28;20314;-80
2023/02/05 07:57:52;;;;;;;6.95;3.45;;;;;;;-5.59;80.99;94313.56;5105448;28;20050;-79
2023/02/05 08:00:18;;;;;;;7.30;3.45;;;;;;;-5.55;80.90;94321.78;5105323;28;20016;-79
2023/02/05 08:02:44;;;;;;;14.82;4.30;;;;;;;-5.50;81.01;94320.13;5105010;28;20341;-80
2023/02/05 08:05:09;;;;;;;9.30;3.40;;;;;;;-5.41;81.35;94325.13;5105135;28;20236;-79
2023/02/05 08:07:36;;;;;;;10.90;3.83;;;;;;;-5.32;81.24;94331.72;5105310;28;20053;-79
2023/02/05 08:10:02;;;;;;;8.40;3.33;;;;;;;-5.26;80.54;94331.69;5105302;28;20020;-79
2023/02/05 08:12:28;;;;;;;7.80;3.50;;;;;;;-5.25;80.04;94333.31;5105069;28;20218;-80
2023/02/05 08:14:53;;;;;;;9.55;2.97;;;;;;;-5.16;79.61;94341.69;5104828;28;20016;-80
2023/02/05 08:17:19;;;;;;;7.50;2.88;;;;;;;-5.11;79.34;94331.47;5104728;28;20012;-80
2023/02/05 08:19:44;;;;;;;7.60;3.20;;;;;;;-5.02;79.10;94337.25;5104975;28;20050;-80
2023/02/05 08:22:10;;;;;;;7.50;3.38;;;;;;;-5.09;78.55;94331.25;5104710;28;20115;-79
2023/02/05 08:24:38;;;;;;;10.00;2.75;;;;;;;-5.02;78.59;94334.66;5104921;28;20095;-79
2023/02/05 08:27:03;;;;;;;11.27;3.58;;;;;;;-4.91;79.00;94336.59;5104734;28;20028;-79
2023/02/05 08:29:28;;;;;;;5.80;3.17;;;;;;;-4.82;77.70;94342.38;5104735;28;20096;-80
2023/02/05 08:31:54;;;;;;;5.53;2.90;;;;;;;-4.75;77.28;94340.53;5104667;28;20251;-79
2023/02/05 08:34:19;;;;;;;8.65;2.97;;;;;;;-4.64;77.45;94345.13;5104675;28;20051;-79
2023/02/05 08:36:45;;;;;;;6.28;2.90;;;;;;;-4.56;77.19;94351.06;5104475;28;20027;-79
2023/02/05 08:39:10;;;;;;;8.20;3.35;;;;;;;-4.58;76.54;94340.06;5104345;28;20020;-79
2023/02/05 08:41:36;;;;;;;5.53;2.75;;;;;;;-4.51;76.56;94348.66;5104433;28;20016;-79
2023/02/05 08:44:02;;;;;;;6.10;3.35;;;;;;;-4.39;76.46;94347.00;5103746;28;20055;-80
2023/02/05 08:46:27;;;;;;;8.48;3.15;;;;;;;-4.30;76.09;94345.75;5104148;28;20342;-79
2023/02/05 08:48:53;;;;;;;9.55;3.22;;;;;;;-4.14;76.00;94354.88;5104272;28;20024;-79
2023/02/05 08:51:19;;;;;;;7.88;3.50;;;;;;;-3.97;75.69;94352.53;5103009;28;20341;-79
2023/02/05 08:53:45;;;;;;;8.25;3.75;;;;;;;-3.87;74.94;94358.13;5104262;28;20225;-79
2023/02/05 08:56:12;;;;;;;8.23;3.72;;;;;;;-3.74;74.09;94349.41;5104136;28;20028;-80
2023/02/05 08:58:39;;;;;;;6.00;2.90;;;;;;;-3.66;72.67;94356.16;5104333;28;20122;-79
2023/02/05 09:01:13;;;;;;;8.10;2.70;;;;;;;-3.57;71.12;94362.69;5104268;28;20313;-79
2023/02/05 09:03:39;;;;;;;8.30;3.03;;;;;;;-3.56;69.07;94355.66;5103998;28;20016;-79
2023/02/05 09:06:07;;;;;;;3.60;2.03;;;;;;;-3.50;67.81;94366.06;5104051;28;20020;-80
2023/02/05 09:08:33;;;;;;;14.75;2.97;;;;;;;-3.38;67.33;94370.56;5104045;28;20316;-79
2023/02/05 09:10:58;;;;;;;5.82;2.00;;;;;;;-3.35;66.97;94378.75;5104027;28;20027;-80
2023/02/05 09:13:24;;;;;;;6.95;2.67;;;;;;;-3.39;64.11;94374.97;5103899;28;20020;-79
2023/02/05 09:15:50;;;;;;;7.22;2.22;;;;;;;-3.44;64.17;94373.03;5103777;28;20016;-79
2023/02/05 09:18:15;;;;;;;5.55;2.17;;;;;;;-3.46;63.75;94377.66;5103725;28;20019;-79
2023/02/05 09:20:46;;;;;;;4.00;1.50;;;;;;;-3.46;62.67;94382.84;5103533;28;20022;-79
2023/02/05 09:23:13;;;;;;;10.10;1.92;;;;;;;-3.40;63.13;94388.22;5103576;28;20024;-79
2023/02/05 09:25:40;;;;;;;7.95;2.58;;;;;;;-3.34;63.24;94390.75;5102451;28;20042;-79
2023/02/05 09:28:08;;;;;;;7.85;2.28;;;;;;;-3.45;62.65;94391.47;5103561;28;20024;-79
2023/02/05 09:30:38;;;;;;;6.90;1.98;;;;;;;-3.48;63.33;94389.28;5101842;28;20031;-79
2023/02/05 09:33:04;;;;;;;5.93;1.95;;;;;;;-3.39;64.08;94392.44;5103530;28;20024;-79
2023/02/05 09:35:33;;;;;;;6.32;2.22;;;;;;;-3.37;63.04;94395.63;5103436;28;20061;-79
2023/02/05 09:38:01;;;;;;;4.57;1.67;;;;;;;-3.40;62.99;94401.25;5103505;28;20027;-79
2023/02/05 09:40:31;;;;;;;10.00;2.60;;;;;;;-3.32;63.29;94399.16;5103398;28;20027;-79
2023/02/05 09:43:05;;;;;;;4.75;2.17;;;;;;;-3.26;63.15;94393.13;5103393;28;20332;-80
2023/02/05 09:45:49;;;;;;;3.13;1.58;;;;;;;-3.19;61.92;94402.69;5103139;28;20099;-79
2023/02/05 09:48:50;;;;;;;6.82;2.08;;;;;;;-3.15;61.63;94396.03;5101939;28;20055;-80
2023/02/05 09:51:42;;;;;;;4.45;1.92;;;;;;;-3.21;60.97;94399.50;5103193;28;20052;-79
2023/02/05 09:54:24;;;;;;;2.25;1.23;;;;;;;-3.28;60.93;94395.16;5096665;28;20264;-79
2023/02/05 09:56:52;;;;;;;3.33;1.40;;;;;;;-3.33;61.01;94402.00;5103003;28;20385;-79
2023/02/05 09:59:21;;;;;;;4.30;1.70;;;;;;;-3.34;61.34;94395.97;5103009;28;20028;-79
2023/02/05 10:01:50;;;;;;;3.55;1.50;;;;;;;-3.40;60.37;94402.03;5102970;28;20077;-79
2023/02/05 10:04:16;;;;;;;5.32;1.73;;;;;;;-3.38;60.74;94394.00;5103173;28;20053;-80
2023/02/05 10:06:54;;;;;;;2.83;1.50;;;;;;;-3.35;61.06;94398.81;5103137;28;20211;-80
2023/02/05 10:09:31;;;;;;;3.53;1.90;;;;;;;-3.23;61.03;94397.09;5101761;28;20024;-78
2023/02/05 10:12:30;;;;;;;5.38;2.22;;;;;;;-3.11;60.76;94400.59;5103168;28;20024;-79
2023/02/05 10:15:14;;;;;;;5.03;1.77;;;;;;;-3.04;60.46;94398.72;5102855;28;20042;-79
2023/02/05 10:17:45;;;;;;;2.60;1.63;;;;;;;-2.93;59.28;94397.25;5102781;28;20024;-80
2023/02/05 10:20:24;;;;;;;5.93;1.63;;;;;;;-3.17;58.09;94396.25;5103029;28;20027;-80
2023/02/05 10:23:07;;;;;;;2.47;1.35;;;;;;;-3.10;60.08;94396.97;5102748;28;20227;-79
2023/02/05 10:25:44;;;;;;;6.20;2.72;;;;;;;-2.99;59.61;94392.06;5103168;28;20114;-80
2023/02/05 10:28:21;;;;;;;9.40;2.35;;;;;;;-3.08;58.46;94400.16;5102819;28;20226;-79
2023/02/05 10:30:53;;;;;;;3.03;1.58;;;;;;;-3.24;58.61;94406.75;5102763;28;20042;-80
2023/02/05 10:33:36;;;;;;;4.90;1.95;;;;;;;-3.37;58.81;94404.22;5102831;28;20039;-79
2023/02/05 10:36:05;;;;;;;4.82;1.35;;;;;;;-3.30;59.09;94417.22;5102935;28;20023;-80
2023/02/05 10:38:36;;;;;;;8.05;2.30;;;;;;;-3.34;59.67;94409.00;5103133;28;20241;-80
2023/02/05 10:41:42;;;;;;;4.80;1.70;;;;;;;-3.37;58.04;94416.47;5104073;28;20027;-80
2023/02/05 10:44:19;;;;;;;2.95;1.10;;;;;;;-3.54;57.58;94400.53;5106567;28;20026;-79
2023/02/05 10:46:50;;;;;;;3.20;1.55;;;;;;;-3.69;57.92;94398.25;5106493;28;20388;-79
2023/02/05 10:49:22;;;;;;;4.20;1.73;;;;;;;-3.72;59.75;94403.91;5106665;28;20357;-80
2023/02/05 10:51:48;;;;;;;4.00;1.67;;;;;;;-3.58;59.79;94408.00;5106718;28;20052;-80
2023/02/05 10:54:22;;;;;;;3.58;1.98;;;;;;;-3.55;58.19;94404.97;5106570;28;20074;-80
2023/02/05 10:56:47;;;;;;;4.20;2.22;;;;;;;-3.60;58.20;94407.41;5106331;28;20065;-79
2023/02/05 10:59:50;;;;;;;8.63;1.83;;;;;;;-3.73;56.82;94397.88;5106565;28;20012;-79
2023/02/05 11:02:15;;;;;;;;;;;;;;;-3.87;58.16;94412.00;5106816;28;20050;-79
2023/02/05 11:04:55;;;;;;;3.08;1.27;;;;;;;-4.01;57.65;94403.44;5106422;28;19907;-79
2023/02/05 11:07:29;;;;;;;5.10;1.83;;;;;;;-4.03;58.05;94410.66;5106186;28;20039;-80
2023/02/05 11:09:54;;;;;;;4.38;1.30;;;;;;;-3.94;57.60;94404.22;5106127;28;20043;-79
2023/02/05 11:12:31;;;;;;;4.45;1.90;;;;;;;-3.89;59.00;94420.03;5106298;28;20310;-80
2023/02/05 11:15:00;;;;;;;3.83;2.05;;;;;;;-3.74;57.04;94408.53;5106277;28;20034;-80
2023/02/05 11:17:33;;;;;;;2.40;1.38;;;;;;;-3.60;57.40;94417.84;5105003;28;20108;-80
2023/02/05 11:20:03;;;;;;;4.72;1.80;;;;;;;-3.50;57.58;94409.53;5106035;28;20024;-80
2023/02/05 11:22:30;;;;;;;4.10;1.70;;;;;;;-3.36;55.93;94413.63;5104844;28;20249;-80
2023/02/05 11:25:16;;;;;;;4.30;1.83;;;;;;;-3.28;55.59;94416.00;5105975;28;20036;-80
2023/02/05 11:27:58;;;;;;;3.67;1.75;;;;;;;-3.21;54.87;94412.53;5105681;28;20057;-79
2023/02/05 11:30:30;;;;;;;5.57;2.22;;;;;;;-3.30;55.31;94414.59;5105926;28;20066;-80
2023/02/05 11:32:57;;;;;;;3.33;1.40;;;;;;;-3.40;54.47;94411.66;5105854;28;20059;-80
2023/02/05 11:35:30;;;;;;;5.40;1.60;;;;;;;-3.40;55.35;94409.06;5105868;28;20032;-80
2023/02/05 11:38:06;;;;;;;7.38;1.20;;;;;;;-3.48;55.42;94418.75;5105775;28;20091;-80
2023/02/05 11:40:32;;;;;;;4.40;1.33;;;;;;;-3.33;56.15;94415.84;5105915;28;20020;-80
2023/02/05 11:43:17;;;;;;;3.30;1.33;;;;;;;-3.19;54.15;94410.53;5105717;28;20032;-80
2023/02/05 11:45:48;;;;;;;3.10;1.33;;;;;;;-3.00;55.49;94406.13;5105473;28;20019;-80